createdAt,value
2019-03-12T00:04:25.355Z,101499.78
2019-03-12T00:09:28.784Z,101501.80
2019-03-12T00:14:32.221Z,101497.47
2019-03-12T00:19:35.676Z,101506.02
2019-03-12T00:24:39.086Z,101508.09
2019-03-12T00:29:42.570Z,101499.32
2019-03-12T00:34:45.996Z,101500.55
2019-03-12T00:39:50.097Z,101496.73
2019-03-12T00:44:53.464Z,101500.88
2019-03-12T00:49:56.911Z,101509.20
2019-03-12T00:55:00.397Z,101509.27
2019-03-12T01:00:06.694Z,101505.16
2019-03-12T01:05:10.271Z,101514.45
2019-03-12T01:10:15.627Z,101512.74
2019-03-12T01:15:19.094Z,101526.73
2019-03-12T01:20:22.555Z,101523.94
2019-03-12T01:25:25.988Z,101516.71
2019-03-12T01:30:29.465Z,101510.55
2019-03-12T01:35:32.899Z,101502.05
2019-03-12T01:40:36.345Z,101507.24
2019-03-12T01:45:39.830Z,101497.14
2019-03-12T01:50:43.286Z,101495.29
2019-03-12T01:55:46.775Z,101483.86
2019-03-12T02:00:50.313Z,101480.30
2019-03-12T02:05:53.772Z,101469.25
2019-03-12T02:10:57.282Z,101466.05
2019-03-12T02:16:00.782Z,101461.51
2019-03-12T02:21:04.278Z,101450.91
2019-03-12T02:26:07.733Z,101456.45
2019-03-12T02:31:11.156Z,101444.28
2019-03-12T02:36:14.570Z,101448.97
2019-03-12T02:41:18.100Z,101444.69
2019-03-12T02:46:21.547Z,101432.16
2019-03-12T02:51:25.058Z,101424.09
2019-03-12T02:56:28.518Z,101422.50
2019-03-12T03:01:31.961Z,101413.86
2019-03-12T03:06:39.598Z,101415.64
2019-03-12T03:11:43.048Z,101407.83
2019-03-12T03:16:46.500Z,101396.63
2019-03-12T03:21:49.965Z,101397.34
2019-03-12T03:26:53.416Z,101394.66
2019-03-12T03:31:56.865Z,101390.15
2019-03-12T03:37:00.343Z,101391.44
2019-03-12T03:42:03.844Z,101386.28
2019-03-12T03:47:07.284Z,101388.22
2019-03-12T03:52:10.737Z,101381.93
2019-03-12T03:57:14.200Z,101375.11
2019-03-12T04:02:17.658Z,101363.94
2019-03-12T04:07:21.087Z,101358.71
2019-03-12T04:12:24.522Z,101373.17
2019-03-12T04:17:27.996Z,101364.69
2019-03-12T04:22:31.439Z,101361.94
2019-03-12T04:27:35.044Z,101373.83
2019-03-12T04:32:38.499Z,101373.75
2019-03-12T04:37:41.935Z,101369.84
2019-03-12T04:42:45.439Z,101371.58
2019-03-12T04:47:48.884Z,101367.39
2019-03-12T04:52:52.379Z,101358.11
2019-03-12T04:57:55.819Z,101347.36
2019-03-12T05:02:59.276Z,101330.31
2019-03-12T05:08:02.754Z,101327.63
2019-03-12T05:13:06.199Z,101322.06
2019-03-12T05:18:09.655Z,101310.25
2019-03-12T05:23:13.092Z,101317.86
2019-03-12T05:28:16.567Z,101313.43
2019-03-12T05:33:20.018Z,101301.92
2019-03-12T05:38:23.439Z,101283.63
2019-03-12T05:43:26.880Z,101271.36
2019-03-12T05:48:30.315Z,101265.98
2019-03-12T05:53:39.286Z,101250.24
2019-03-12T05:58:42.795Z,101250.67
2019-03-12T06:03:46.235Z,101242.98
2019-03-12T06:08:49.685Z,101238.56
2019-03-12T06:13:53.146Z,101234.66
2019-03-12T06:18:56.610Z,101231.78
2019-03-12T06:24:00.074Z,101220.98
2019-03-12T06:29:03.570Z,101215.84
2019-03-12T06:34:08.694Z,101197.47
2019-03-12T06:39:16.639Z,101192.14
2019-03-12T06:44:21.756Z,101186.05
2019-03-12T06:49:32.254Z,101182.42
2019-03-12T06:54:49.527Z,101173.54
2019-03-12T07:00:03.465Z,101162.91
2019-03-12T07:05:15.073Z,101149.84
2019-03-12T07:10:35.274Z,101150.77
2019-03-12T07:15:48.965Z,101148.37
2019-03-12T07:21:05.884Z,101129.91
2019-03-12T07:26:13.874Z,101118.08
2019-03-12T07:31:21.639Z,101099.01
2019-03-12T07:36:26.825Z,101094.03
2019-03-12T07:41:37.521Z,101082.67
2019-03-12T07:46:45.430Z,101079.94
2019-03-12T07:51:50.541Z,101064.13
2019-03-12T07:57:11.900Z,101056.94
2019-03-12T08:02:25.620Z,101047.35
2019-03-12T08:07:33.366Z,101051.24
2019-03-12T14:11:35.396Z,100113.64
2019-03-12T14:16:38.860Z,100104.84
2019-03-12T14:21:42.456Z,100089.05
2019-03-12T14:26:45.983Z,100078.27
2019-03-12T14:31:49.484Z,100042.97
2019-03-12T14:36:53.096Z,100035.20
2019-03-12T14:41:56.597Z,100021.56
2019-03-12T14:47:00.035Z,100016.64
2019-03-12T14:52:06.752Z,100004.63
2019-03-12T14:57:10.368Z,99981.81
2019-03-12T15:02:13.850Z,99963.95
2019-03-12T15:07:17.308Z,99949.31
2019-03-12T15:12:20.742Z,99936.94
2019-03-12T15:17:24.175Z,99928.44
2019-03-12T15:22:27.623Z,99912.66
2019-03-12T15:27:31.069Z,99887.16
2019-03-12T15:32:34.520Z,99867.50
2019-03-12T15:37:37.962Z,99863.55
2019-03-12T15:42:41.420Z,99851.44
2019-03-12T15:47:44.848Z,99828.55
2019-03-12T15:52:48.269Z,99807.38
2019-03-12T15:57:51.678Z,99791.89
2019-03-12T16:02:55.116Z,99775.84
2019-03-12T16:07:58.527Z,99755.57
2019-03-12T16:13:01.995Z,99749.23
2019-03-12T16:18:05.482Z,99734.36
2019-03-12T16:23:08.912Z,99714.95
2019-03-12T16:28:12.355Z,99681.84
2019-03-12T16:33:15.792Z,99652.90
2019-03-12T16:38:19.238Z,99635.20
2019-03-12T16:43:22.693Z,99636.98
2019-03-12T16:48:26.111Z,99624.52
2019-03-12T16:53:29.657Z,99604.14
2019-03-12T16:58:33.076Z,99585.05
2019-03-12T17:03:36.593Z,99585.09
2019-03-12T17:08:40.034Z,99564.03
2019-03-12T17:13:43.442Z,99544.59
2019-03-12T17:18:46.903Z,99529.00
2019-03-12T17:23:50.330Z,99511.26
2019-03-12T17:28:53.742Z,99494.81
2019-03-12T17:33:57.184Z,99482.67
2019-03-12T17:39:00.600Z,99481.78
2019-03-12T17:44:04.084Z,99477.92
2019-03-12T17:49:07.508Z,99453.25
2019-03-12T17:54:10.916Z,99450.55
2019-03-12T17:59:14.368Z,99435.50
2019-03-12T18:04:17.784Z,99427.57
2019-03-12T18:09:21.197Z,99431.36
2019-03-12T18:14:24.626Z,99404.33
2019-03-12T18:19:28.080Z,99392.73
2019-03-12T18:24:31.602Z,99377.50
2019-03-12T18:29:35.033Z,99372.80
2019-03-12T18:34:38.453Z,99357.72
2019-03-12T18:39:41.903Z,99341.73
2019-03-12T18:44:45.410Z,99337.63
2019-03-12T18:49:48.972Z,99311.64
2019-03-12T18:54:52.420Z,99313.25
2019-03-12T18:59:55.851Z,99288.62
2019-03-12T19:04:59.297Z,99282.81
2019-03-12T19:10:02.734Z,99253.33
2019-03-12T19:15:09.164Z,99266.79
2019-03-12T19:20:19.860Z,99273.22
2019-03-12T19:25:41.601Z,99251.42
2019-03-12T19:30:45.023Z,99258.32
2019-03-12T19:35:48.511Z,99240.03
2019-03-12T19:40:54.168Z,99225.44
2019-03-12T19:45:57.594Z,99205.17
2019-03-12T19:51:01.029Z,99177.94
2019-03-12T19:56:08.026Z,99155.69
2019-03-12T20:01:12.519Z,99139.25
2019-03-12T20:06:15.944Z,99139.14
2019-03-12T20:11:34.195Z,99128.68
2019-03-12T20:16:43.603Z,99127.49
2019-03-12T20:22:12.843Z,99140.94
2019-03-12T20:27:22.301Z,99117.44
2019-03-12T20:32:43.447Z,99106.36
2019-03-12T20:38:11.166Z,99100.84
2019-03-12T20:43:50.670Z,99096.70
2019-03-12T20:49:16.670Z,99098.87
2019-03-12T20:54:41.069Z,99094.97
2019-03-12T21:00:22.140Z,99101.98
2019-03-12T21:06:02.244Z,99104.56
2019-03-12T21:11:37.754Z,99104.19
2019-03-12T21:16:56.608Z,99105.67
2019-03-12T21:22:20.424Z,99097.89
2019-03-12T21:27:45.377Z,99075.45
2019-03-12T21:32:48.847Z,99083.50
2019-03-12T21:37:52.472Z,99062.72
2019-03-12T21:42:55.991Z,99065.95
2019-03-12T21:47:59.402Z,99052.29
2019-03-12T21:53:03.018Z,99036.71
2019-03-12T21:58:06.683Z,99033.56
2019-03-12T22:03:10.141Z,99025.16
2019-03-12T22:08:13.553Z,99031.64
2019-03-12T22:13:16.966Z,99055.95
2019-03-12T22:18:20.393Z,99079.95
2019-03-12T22:23:25.472Z,99132.98
2019-03-12T22:28:28.914Z,99182.23
2019-03-12T22:33:32.405Z,99195.84
2019-03-12T22:38:35.937Z,99214.67
2019-03-12T22:43:39.455Z,99247.81
2019-03-12T22:48:42.876Z,99286.65
2019-03-12T22:53:46.296Z,99298.05
2019-03-12T22:58:49.773Z,99316.72
2019-03-12T23:03:53.151Z,99330.73
2019-03-12T23:08:57.714Z,99353.52
2019-03-12T23:14:01.142Z,99354.02
2019-03-12T23:19:04.752Z,99363.95
2019-03-12T23:24:08.238Z,99376.48
2019-03-12T23:29:11.842Z,99388.05
2019-03-12T23:34:15.404Z,99404.97
2019-03-12T23:39:19.063Z,99416.08
2019-03-12T23:44:22.591Z,99424.44
2019-03-12T23:49:26.163Z,99444.53
2019-03-12T23:54:30.493Z,99445.05
2019-03-12T23:59:33.924Z,99454.70
